createdAt,value
2019-03-09T00:00:17.650Z,23.11
2019-03-09T00:02:46.048Z,23.10
2019-03-09T00:05:14.477Z,23.07
2019-03-09T00:07:42.877Z,23.09
2019-03-09T00:10:11.319Z,23.09
2019-03-09T00:12:39.701Z,23.08
2019-03-09T00:15:08.697Z,23.08
2019-03-09T00:17:37.266Z,23.07
2019-03-09T00:20:07.740Z,23.07
2019-03-09T00:22:36.208Z,23.06
2019-03-09T00:25:07.032Z,23.05
2019-03-09T00:27:37.067Z,23.04
2019-03-09T00:30:15.390Z,23.04
2019-03-09T00:32:43.785Z,23.02
2019-03-09T00:35:12.180Z,23.01
2019-03-09T00:37:40.715Z,23.01
2019-03-09T00:40:11.164Z,22.99
2019-03-09T00:42:39.583Z,23.00
2019-03-09T00:45:08.588Z,22.99
2019-03-09T00:47:37.052Z,22.97
2019-03-09T00:50:08.187Z,22.97
2019-03-09T00:52:36.622Z,22.97
2019-03-09T00:55:08.137Z,22.96
2019-03-09T00:57:36.515Z,22.95
2019-03-09T01:00:07.802Z,22.95
2019-03-09T01:02:36.197Z,22.93
2019-03-09T01:05:05.622Z,22.93
2019-03-09T01:07:34.087Z,22.93
2019-03-09T01:10:02.515Z,22.92
2019-03-09T01:12:30.972Z,22.92
2019-03-09T01:14:59.372Z,22.92
2019-03-09T01:17:27.761Z,22.92
2019-03-09T01:19:56.178Z,22.90
2019-03-09T01:22:24.548Z,22.90
2019-03-09T01:24:52.926Z,22.90
2019-03-09T01:27:21.354Z,22.88
2019-03-09T01:29:49.814Z,22.87
2019-03-09T01:32:18.201Z,22.87
2019-03-09T01:34:46.610Z,22.87
2019-03-09T01:37:14.999Z,22.87
2019-03-09T01:39:43.387Z,22.86
2019-03-09T01:42:11.784Z,22.85
2019-03-09T01:44:40.170Z,22.85
2019-03-09T01:47:08.554Z,22.85
2019-03-09T01:49:36.974Z,22.85
2019-03-09T01:52:05.365Z,22.84
2019-03-09T01:54:33.927Z,22.84
2019-03-09T01:57:02.315Z,22.82
2019-03-09T01:59:30.768Z,22.83
2019-03-09T02:01:59.233Z,22.82
2019-03-09T02:04:27.620Z,22.81
2019-03-09T02:06:56.047Z,22.80
2019-03-09T02:09:24.606Z,22.80
2019-03-09T02:11:53.030Z,22.81
2019-03-09T02:14:21.418Z,22.79
2019-03-09T02:16:49.911Z,22.79
2019-03-09T02:19:18.365Z,22.79
2019-03-09T02:21:46.783Z,22.78
2019-03-09T02:24:15.169Z,22.78
2019-03-09T02:26:43.582Z,22.78
2019-03-09T02:29:11.973Z,22.76
2019-03-09T02:31:40.466Z,22.77
2019-03-09T02:34:08.928Z,22.77
2019-03-09T02:36:37.341Z,22.75
2019-03-09T02:39:07.921Z,22.76
2019-03-09T02:41:36.346Z,22.74
2019-03-09T02:44:04.746Z,22.74
2019-03-09T02:46:33.160Z,22.73
2019-03-09T02:49:01.602Z,22.74
2019-03-09T02:51:30.059Z,22.73
2019-03-09T02:53:58.498Z,22.72
2019-03-09T02:56:27.045Z,22.72
2019-03-09T02:58:55.471Z,22.71
2019-03-09T03:01:31.374Z,22.71
2019-03-09T03:03:59.765Z,22.70
2019-03-09T03:06:28.162Z,22.71
2019-03-09T03:08:56.638Z,22.69
2019-03-09T03:11:25.040Z,22.70
2019-03-09T03:13:53.419Z,22.70
2019-03-09T03:16:21.802Z,22.68
2019-03-09T03:18:50.227Z,22.68
2019-03-09T03:21:18.609Z,22.67
2019-03-09T03:23:47.035Z,22.66
2019-03-09T03:26:15.427Z,22.66
2019-03-09T03:28:43.852Z,22.65
2019-03-09T03:31:12.237Z,22.65
2019-03-09T03:33:40.705Z,22.64
2019-03-09T03:36:09.338Z,22.64
2019-03-09T03:38:37.795Z,22.64
2019-03-09T03:41:06.165Z,22.63
2019-03-09T03:43:34.620Z,22.63
2019-03-09T03:46:03.009Z,22.61
2019-03-09T03:48:31.475Z,22.61
2019-03-09T03:50:59.861Z,22.60
2019-03-09T03:53:28.259Z,22.61
2019-03-09T03:55:56.641Z,22.59
2019-03-09T03:58:25.035Z,22.60
2019-03-09T04:00:53.427Z,22.59
2019-03-09T04:03:21.816Z,22.59
2019-03-09T04:05:50.203Z,22.58
2019-03-09T04:08:18.591Z,22.58
2019-03-09T04:10:46.987Z,22.57
2019-03-09T04:13:15.384Z,22.57
2019-03-09T04:15:43.844Z,22.56
2019-03-09T04:18:12.224Z,22.56
2019-03-09T04:20:40.661Z,22.56
2019-03-09T04:23:09.048Z,22.55
2019-03-09T04:25:37.446Z,22.54
2019-03-09T04:28:05.837Z,22.53
2019-03-09T04:30:34.226Z,22.55
2019-03-09T04:33:02.630Z,22.54
2019-03-09T04:35:31.023Z,22.52
2019-03-09T04:37:59.409Z,22.51
2019-03-09T04:40:27.800Z,22.51
2019-03-09T04:42:56.213Z,22.50
2019-03-09T04:45:24.647Z,22.50
2019-03-09T04:47:53.077Z,22.50
2019-03-09T04:50:21.461Z,22.49
2019-03-09T04:52:49.905Z,22.49
2019-03-09T04:55:18.292Z,22.49
2019-03-09T04:57:46.743Z,22.48
2019-03-09T05:00:15.940Z,22.47
2019-03-09T05:02:44.353Z,22.47
2019-03-09T05:05:12.982Z,22.47
2019-03-09T05:07:52.904Z,22.46
2019-03-09T05:10:52.078Z,22.46
2019-03-09T05:13:26.801Z,22.46
2019-03-09T05:15:55.194Z,22.44
2019-03-09T05:18:24.094Z,22.45
2019-03-09T05:20:52.544Z,22.44
2019-03-09T05:23:21.004Z,22.44
2019-03-09T05:25:49.389Z,22.44
2019-03-09T05:28:17.962Z,22.43
2019-03-09T05:30:47.115Z,22.43
2019-03-09T05:33:15.521Z,22.42
2019-03-09T05:35:43.903Z,22.41
2019-03-09T05:38:12.333Z,22.42
2019-03-09T05:40:40.718Z,22.42
2019-03-09T05:43:09.151Z,22.42
2019-03-09T05:45:37.541Z,22.42
2019-03-09T05:48:05.955Z,22.42
2019-03-09T05:50:34.352Z,22.43
2019-03-09T05:53:11.254Z,22.43
2019-03-09T05:55:39.642Z,22.42
2019-03-09T05:58:08.072Z,22.43
2019-03-09T06:00:37.653Z,22.42
2019-03-09T06:03:06.071Z,22.42
2019-03-09T06:05:37.067Z,22.44
2019-03-09T06:08:06.135Z,22.43
2019-03-09T06:10:34.567Z,22.43
2019-03-09T06:13:02.934Z,22.43
2019-03-09T06:15:31.334Z,22.42
2019-03-09T06:17:59.707Z,22.44
2019-03-09T06:20:28.099Z,22.44
2019-03-09T06:22:56.542Z,22.43
2019-03-09T06:25:24.934Z,22.43
2019-03-09T06:27:53.329Z,22.44
2019-03-09T06:30:21.722Z,22.46
2019-03-09T06:33:18.771Z,22.46
2019-03-09T06:35:53.278Z,22.47
2019-03-09T06:38:30.737Z,22.49
2019-03-09T06:41:02.852Z,22.51
2019-03-09T06:43:29.247Z,22.50
2019-03-09T06:45:57.638Z,22.53
2019-03-09T06:48:26.036Z,22.54
2019-03-09T06:50:54.430Z,22.55
2019-03-09T06:53:22.854Z,22.56
2019-03-09T06:55:51.218Z,22.58
2019-03-09T06:58:19.603Z,22.59
2019-03-09T07:00:48.142Z,22.62
2019-03-09T07:03:16.577Z,22.62
2019-03-09T07:05:45.100Z,22.65
2019-03-09T07:08:13.558Z,22.66
2019-03-09T07:10:41.992Z,22.66
2019-03-09T07:13:10.378Z,22.68
2019-03-09T07:15:40.546Z,22.68
2019-03-09T07:18:14.813Z,22.69
2019-03-09T07:20:43.229Z,22.70
2019-03-09T07:23:11.613Z,22.72
2019-03-09T07:25:40.034Z,22.73
2019-03-09T07:28:10.184Z,22.76
2019-03-09T07:30:38.609Z,22.77
2019-03-09T07:33:06.999Z,22.79
2019-03-09T07:35:35.483Z,22.81
2019-03-09T07:38:03.874Z,22.84
2019-03-09T07:40:32.269Z,22.85
2019-03-09T07:43:00.676Z,22.88
2019-03-09T07:45:29.077Z,22.89
2019-03-09T07:47:57.467Z,22.91
2019-03-09T07:50:25.857Z,22.94
2019-03-09T07:52:54.245Z,22.98
2019-03-09T07:55:23.109Z,23.00
2019-03-09T07:57:51.498Z,23.04
2019-03-09T08:00:20.947Z,23.07
2019-03-09T08:02:49.465Z,23.10
2019-03-09T08:05:17.859Z,23.14
2019-03-09T08:07:46.255Z,23.18
2019-03-09T08:10:19.435Z,23.21
2019-03-09T08:12:47.831Z,23.25
2019-03-09T08:15:20.466Z,23.32
2019-03-09T08:17:48.860Z,23.36
2019-03-09T08:20:18.493Z,23.42
2019-03-09T08:22:46.882Z,23.47
2019-03-09T08:25:22.822Z,23.50
2019-03-09T08:27:51.292Z,23.50
2019-03-09T08:30:26.912Z,23.50
2019-03-09T08:32:55.372Z,23.53
2019-03-09T08:35:23.779Z,23.54
2019-03-09T08:37:52.405Z,23.56
2019-03-09T08:40:21.897Z,23.58
2019-03-09T08:42:50.377Z,23.60
2019-03-09T08:45:22.577Z,23.67
2019-03-09T08:47:52.526Z,23.72
2019-03-09T08:50:22.494Z,23.81
2019-03-09T08:52:50.935Z,23.88
2019-03-09T08:55:20.987Z,23.93
2019-03-09T08:57:49.381Z,23.98
2019-03-09T09:00:26.562Z,24.03
2019-03-09T09:02:54.907Z,24.08
2019-03-09T09:05:23.410Z,24.11
2019-03-09T09:07:51.878Z,24.13
2019-03-09T09:10:20.327Z,24.18
2019-03-09T09:12:48.867Z,24.23
2019-03-09T09:15:18.298Z,24.30
2019-03-09T09:17:46.712Z,24.36
2019-03-09T09:20:27.854Z,24.44
2019-03-09T09:22:56.255Z,24.50
2019-03-09T09:25:24.703Z,24.53
2019-03-09T09:27:54.034Z,24.55
2019-03-09T09:30:28.157Z,24.56
2019-03-09T09:32:56.631Z,24.60
2019-03-09T09:35:25.013Z,24.65
2019-03-09T09:37:53.572Z,24.72
2019-03-09T09:40:26.192Z,24.79
2019-03-09T09:42:54.474Z,24.89
2019-03-09T09:45:23.133Z,24.98
2019-03-09T09:47:51.533Z,25.07
2019-03-09T09:50:19.986Z,25.16
2019-03-09T09:52:48.375Z,25.26
2019-03-09T09:55:18.959Z,25.36
2019-03-09T09:57:47.474Z,25.42
2019-03-09T10:00:17.802Z,25.45
2019-03-09T10:02:46.202Z,25.52
2019-03-09T10:05:14.591Z,25.77
2019-03-09T10:07:42.988Z,25.96
2019-03-09T10:10:16.017Z,26.17
2019-03-09T10:12:44.417Z,26.35
2019-03-09T10:15:24.447Z,26.53
2019-03-09T10:17:52.820Z,26.69
2019-03-09T10:20:21.212Z,26.84
2019-03-09T10:22:49.652Z,26.94
2019-03-09T10:25:18.041Z,27.06
2019-03-09T10:27:46.436Z,27.17
2019-03-09T10:30:20.572Z,27.31
2019-03-09T10:32:49.037Z,27.44
2019-03-09T10:35:17.449Z,27.51
2019-03-09T10:37:46.067Z,27.68
2019-03-09T10:40:15.609Z,27.81
2019-03-09T10:42:44.117Z,27.96
2019-03-09T10:45:23.019Z,28.12
2019-03-09T10:47:51.727Z,28.16
2019-03-09T10:50:20.589Z,28.18
2019-03-09T10:52:48.990Z,28.21
2019-03-09T10:55:28.082Z,28.33
2019-03-09T10:57:56.476Z,28.53
2019-03-09T11:00:36.786Z,28.77
2019-03-09T11:03:05.245Z,28.95
2019-03-09T11:05:33.692Z,28.98
2019-03-09T11:08:02.107Z,28.86
2019-03-09T11:10:30.508Z,28.67
2019-03-09T11:12:59.168Z,28.47
2019-03-09T11:15:27.572Z,28.24
2019-03-09T11:17:55.990Z,28.07
2019-03-09T11:20:24.392Z,27.87
2019-03-09T11:22:52.797Z,27.85
2019-03-09T11:25:21.185Z,27.87
2019-03-09T11:27:49.578Z,27.84
2019-03-09T11:30:20.419Z,27.74
2019-03-09T11:32:48.819Z,27.68
2019-03-09T11:35:17.214Z,27.91
2019-03-09T11:37:45.718Z,28.48
2019-03-09T11:40:14.247Z,29.16
2019-03-09T11:42:42.638Z,29.25
2019-03-09T11:45:16.226Z,29.10
2019-03-09T11:47:44.629Z,28.87
2019-03-09T11:50:15.163Z,28.58
2019-03-09T11:52:43.570Z,28.29
2019-03-09T11:55:14.350Z,28.01
2019-03-09T11:57:42.782Z,27.77
2019-03-09T12:00:15.762Z,27.55
2019-03-09T12:02:44.159Z,27.33
2019-03-09T12:05:12.575Z,27.13
2019-03-09T12:07:41.049Z,26.97
2019-03-09T12:10:10.877Z,26.81
2019-03-09T12:12:39.275Z,26.68
2019-03-09T12:15:14.910Z,26.57
2019-03-09T12:17:43.309Z,26.45
2019-03-09T12:20:13.019Z,26.34
2019-03-09T12:22:41.422Z,26.24
2019-03-09T12:25:11.995Z,26.16
2019-03-09T12:27:40.425Z,26.07
2019-03-09T12:30:11.568Z,25.99
2019-03-09T12:32:40.048Z,25.90
2019-03-09T12:35:09.078Z,25.82
2019-03-09T12:37:37.350Z,25.73
2019-03-09T12:40:11.269Z,25.66
2019-03-09T12:42:39.813Z,25.57
2019-03-09T12:45:10.234Z,25.49
2019-03-09T12:47:38.843Z,25.44
2019-03-09T12:50:10.729Z,25.36
2019-03-09T12:52:39.205Z,25.28
2019-03-09T12:55:07.627Z,25.20
2019-03-09T12:57:36.056Z,25.14
2019-03-09T13:00:05.809Z,25.07
2019-03-09T13:02:34.199Z,25.00
2019-03-09T13:05:02.590Z,24.93
2019-03-09T13:07:31.022Z,24.88
2019-03-09T13:09:59.404Z,24.81
2019-03-09T13:12:27.929Z,24.77
2019-03-09T13:14:56.314Z,24.70
2019-03-09T13:17:24.770Z,24.65
2019-03-09T13:19:53.159Z,24.61
2019-03-09T13:22:21.585Z,24.55
2019-03-09T13:24:49.973Z,24.51
2019-03-09T13:27:18.366Z,24.47
2019-03-09T13:29:48.040Z,24.43
2019-03-09T13:32:16.439Z,24.39
2019-03-09T13:34:44.843Z,24.35
2019-03-09T13:37:13.236Z,24.30
2019-03-09T13:39:41.649Z,24.27
2019-03-09T13:42:10.038Z,24.24
2019-03-09T13:44:38.430Z,24.22
2019-03-09T13:47:06.931Z,24.19
2019-03-09T13:49:35.326Z,24.16
2019-03-09T13:52:03.711Z,24.12
2019-03-09T13:54:32.104Z,24.09
2019-03-09T13:57:00.499Z,24.10
2019-03-09T13:59:28.895Z,24.09
2019-03-09T14:01:57.286Z,24.07
2019-03-09T14:04:25.747Z,24.08
2019-03-09T14:06:54.137Z,24.12
2019-03-09T14:09:22.530Z,24.92
2019-03-09T14:11:50.920Z,26.52
2019-03-09T14:14:19.310Z,27.19
2019-03-09T14:16:47.721Z,27.75
2019-03-09T14:19:16.113Z,28.15
2019-03-09T14:21:44.506Z,27.50
2019-03-09T14:24:12.907Z,27.11
2019-03-09T14:26:41.369Z,26.75
2019-03-09T14:29:09.818Z,26.42
2019-03-09T14:31:38.214Z,26.13
2019-03-09T14:34:06.623Z,26.44
2019-03-09T14:36:35.020Z,26.16
2019-03-09T14:39:04.868Z,26.26
2019-03-09T14:41:33.255Z,26.18
2019-03-09T14:44:01.657Z,25.92
2019-03-09T14:46:30.121Z,25.76
2019-03-09T14:48:58.591Z,25.65
2019-03-09T14:51:27.002Z,25.57
2019-03-09T14:53:55.396Z,25.52
2019-03-09T14:56:23.887Z,25.45
2019-03-09T14:58:52.283Z,25.38
2019-03-09T15:01:20.671Z,25.29
2019-03-09T15:03:49.103Z,25.20
2019-03-09T15:06:21.993Z,25.13
2019-03-09T15:08:51.660Z,25.04
2019-03-09T15:11:20.048Z,24.98
2019-03-09T15:13:48.483Z,24.91
2019-03-09T15:16:16.876Z,24.85
2019-03-09T15:18:45.295Z,24.81
2019-03-09T15:21:13.694Z,24.75
2019-03-09T15:23:42.225Z,24.72
2019-03-09T15:26:10.659Z,24.67
2019-03-09T15:28:39.056Z,24.62
2019-03-09T15:31:07.459Z,24.57
2019-03-09T15:33:35.950Z,24.52
2019-03-09T15:36:04.436Z,24.47
2019-03-09T15:38:32.851Z,24.42
2019-03-09T15:41:01.361Z,24.38
2019-03-09T15:43:29.816Z,24.32
2019-03-09T15:45:58.212Z,24.27
2019-03-09T15:48:26.650Z,24.23
2019-03-09T15:50:55.022Z,24.18
2019-03-09T15:53:25.021Z,24.14
2019-03-09T15:55:53.411Z,24.10
2019-03-09T15:58:21.850Z,24.07
2019-03-09T16:00:50.320Z,24.03
2019-03-09T16:03:18.709Z,23.99
2019-03-09T16:05:47.099Z,23.96
2019-03-09T16:08:16.988Z,23.92
2019-03-09T16:10:45.415Z,23.89
2019-03-09T16:13:13.877Z,23.84
2019-03-09T16:15:42.274Z,23.82
2019-03-09T16:18:10.732Z,23.77
2019-03-09T16:20:39.132Z,23.74
2019-03-09T16:23:07.896Z,23.71
2019-03-09T16:25:36.317Z,23.67
2019-03-09T16:28:04.760Z,23.64
2019-03-09T16:30:33.192Z,23.61
2019-03-09T16:33:01.579Z,23.58
2019-03-09T16:35:30.034Z,23.54
2019-03-09T16:37:58.445Z,23.52
2019-03-09T16:40:26.886Z,23.49
2019-03-09T16:42:55.281Z,23.46
2019-03-09T16:45:23.719Z,23.44
2019-03-09T16:47:52.116Z,23.40
2019-03-09T16:50:20.526Z,23.38
2019-03-09T16:52:48.950Z,23.36
2019-03-09T16:55:17.467Z,23.36
2019-03-09T16:57:45.915Z,23.33
2019-03-09T17:00:19.167Z,23.30
2019-03-09T17:02:47.550Z,23.29
2019-03-09T17:05:15.986Z,23.25
2019-03-09T17:07:44.386Z,23.24
2019-03-09T17:10:14.235Z,23.23
2019-03-09T17:12:42.627Z,23.21
2019-03-09T17:15:17.257Z,23.20
2019-03-09T17:17:45.654Z,23.18
2019-03-09T17:20:17.942Z,23.16
2019-03-09T17:22:46.334Z,23.14
2019-03-09T17:25:15.364Z,23.12
2019-03-09T17:27:43.747Z,23.12
2019-03-09T17:30:19.978Z,23.10
2019-03-09T17:32:48.438Z,23.08
2019-03-09T17:35:16.841Z,23.07
2019-03-09T17:37:45.242Z,23.05
2019-03-09T17:40:15.158Z,23.05
2019-03-09T17:42:43.561Z,23.04
2019-03-09T17:45:14.751Z,23.04
2019-03-09T17:47:43.178Z,23.01
2019-03-09T17:50:13.292Z,23.01
2019-03-09T17:52:41.671Z,22.99
2019-03-09T17:55:11.144Z,22.97
2019-03-09T17:57:39.541Z,22.95
2019-03-09T18:00:26.658Z,22.95
2019-03-09T18:02:55.147Z,22.95
2019-03-09T18:05:23.575Z,22.93
2019-03-09T18:07:51.981Z,22.92
2019-03-09T18:10:40.198Z,22.91
2019-03-09T18:13:08.584Z,22.90
2019-03-09T18:15:37.044Z,22.89
2019-03-09T18:18:05.440Z,22.89
2019-03-09T18:20:34.016Z,22.88
2019-03-09T18:23:02.412Z,22.86
2019-03-09T18:25:30.873Z,22.85
2019-03-09T18:27:59.321Z,22.84
2019-03-09T18:30:27.839Z,22.83
2019-03-09T18:32:56.220Z,22.82
2019-03-09T18:35:24.634Z,22.82
2019-03-09T18:37:53.029Z,22.81
2019-03-09T18:40:21.438Z,22.79
2019-03-09T18:42:49.832Z,22.79
2019-03-09T18:45:20.923Z,22.78
2019-03-09T18:47:49.307Z,22.78
2019-03-09T18:50:17.702Z,22.75
2019-03-09T18:52:46.089Z,22.75
2019-03-09T18:55:14.548Z,22.72
2019-03-09T18:57:42.956Z,22.73
2019-03-09T19:00:18.502Z,22.73
2019-03-09T19:02:46.888Z,22.72
2019-03-09T19:05:15.304Z,22.71
2019-03-09T19:07:43.907Z,22.69
2019-03-09T19:10:14.544Z,22.71
2019-03-09T19:12:42.938Z,22.71
2019-03-09T19:15:15.123Z,22.69
2019-03-09T19:17:43.517Z,22.69
2019-03-09T19:20:17.103Z,22.68
2019-03-09T19:22:45.483Z,22.68
2019-03-09T19:25:14.540Z,22.69
2019-03-09T19:27:42.931Z,22.68
2019-03-09T19:30:17.390Z,22.68
2019-03-09T19:32:48.247Z,22.67
2019-03-09T19:35:16.685Z,22.67
2019-03-09T19:37:45.094Z,22.66
2019-03-09T19:40:17.873Z,22.65
2019-03-09T19:42:46.304Z,22.66
2019-03-09T19:45:18.114Z,22.66
2019-03-09T19:47:46.512Z,22.65
2019-03-09T19:50:17.207Z,22.64
2019-03-09T19:52:45.601Z,22.65
2019-03-09T19:55:14.081Z,22.64
2019-03-09T19:57:42.485Z,22.63
2019-03-09T20:00:16.906Z,22.63
2019-03-09T20:02:46.416Z,22.62
2019-03-09T20:05:14.860Z,22.62
2019-03-09T20:07:43.251Z,22.62
2019-03-09T20:10:20.032Z,22.62
2019-03-09T20:12:48.429Z,22.63
2019-03-09T20:15:18.960Z,22.62
2019-03-09T20:17:47.365Z,22.63
2019-03-09T20:20:17.807Z,22.63
2019-03-09T20:22:46.215Z,22.62
2019-03-09T20:25:14.617Z,22.60
2019-03-09T20:27:43.014Z,22.59
2019-03-09T20:30:19.535Z,22.58
2019-03-09T20:32:48.487Z,22.58
2019-03-09T20:35:16.911Z,22.57
2019-03-09T20:37:45.302Z,22.57
2019-03-09T20:40:17.936Z,22.55
2019-03-09T20:42:46.337Z,22.54
2019-03-09T20:45:16.884Z,22.54
2019-03-09T20:47:45.280Z,22.52
2019-03-09T20:50:17.696Z,22.51
2019-03-09T20:52:46.101Z,22.51
2019-03-09T20:55:14.504Z,22.50
2019-03-09T20:57:42.913Z,22.49
2019-03-09T21:00:16.323Z,22.47
2019-03-09T21:02:44.743Z,22.46
2019-03-09T21:05:13.150Z,22.46
2019-03-09T21:07:41.567Z,22.46
2019-03-09T21:10:12.755Z,22.45
2019-03-09T21:12:55.290Z,22.43
2019-03-09T21:15:23.680Z,22.43
2019-03-09T21:17:52.072Z,22.42
2019-03-09T21:20:20.491Z,22.41
2019-03-09T21:22:48.896Z,22.40
2019-03-09T21:25:17.290Z,22.38
2019-03-09T21:27:45.673Z,22.38
2019-03-09T21:30:14.546Z,22.36
2019-03-09T21:32:42.948Z,22.35
2019-03-09T21:35:11.347Z,22.35
2019-03-09T21:37:39.743Z,22.35
2019-03-09T21:40:08.304Z,22.35
2019-03-09T21:42:36.706Z,22.32
2019-03-09T21:45:07.867Z,22.33
2019-03-09T21:47:36.251Z,22.33
2019-03-09T21:50:07.748Z,22.33
2019-03-09T21:52:36.138Z,22.35
2019-03-09T21:55:06.174Z,22.35
2019-03-09T21:57:34.569Z,22.35
2019-03-09T22:00:03.152Z,22.36
2019-03-09T22:02:31.585Z,22.37
2019-03-09T22:05:00.317Z,22.37
2019-03-09T22:07:29.986Z,22.37
2019-03-09T22:09:58.378Z,22.36
2019-03-09T22:12:26.826Z,22.36
2019-03-09T22:14:55.210Z,22.36
2019-03-09T22:17:25.280Z,22.36
2019-03-09T22:19:53.675Z,22.35
2019-03-09T22:22:22.101Z,22.35
2019-03-09T22:24:50.765Z,22.34
2019-03-09T22:27:24.707Z,22.35
2019-03-09T22:29:53.310Z,22.32
2019-03-09T22:32:21.744Z,22.33
2019-03-09T22:34:50.124Z,22.32
2019-03-09T22:37:18.542Z,22.32
2019-03-09T22:39:46.935Z,22.31
2019-03-09T22:42:15.355Z,22.30
2019-03-09T22:44:43.770Z,22.30
2019-03-09T22:47:12.333Z,22.29
2019-03-09T22:49:40.766Z,22.27
2019-03-09T22:54:36.726Z,22.25
2019-03-09T22:57:06.567Z,22.24
2019-03-09T22:59:36.674Z,22.24
2019-03-09T23:02:05.724Z,22.24
2019-03-09T23:04:34.112Z,22.24
2019-03-09T23:07:02.511Z,22.22
2019-03-09T23:09:30.929Z,22.21
2019-03-09T23:11:59.328Z,22.18
2019-03-09T23:14:27.719Z,22.17
2019-03-09T23:16:56.133Z,22.14
2019-03-09T23:19:24.526Z,22.11
2019-03-09T23:21:52.924Z,22.09
2019-03-09T23:24:21.339Z,22.07
2019-03-09T23:26:49.729Z,22.07
2019-03-09T23:29:18.193Z,22.06
2019-03-09T23:31:46.629Z,22.04
2019-03-09T23:34:15.018Z,22.04
2019-03-09T23:36:43.421Z,22.03
2019-03-09T23:39:11.809Z,22.02
2019-03-09T23:41:40.216Z,22.02
2019-03-09T23:44:08.607Z,22.01
2019-03-09T23:46:37.042Z,22.01
2019-03-09T23:49:05.497Z,22.00
2019-03-09T23:51:33.971Z,22.01
2019-03-09T23:54:02.371Z,22.00
2019-03-09T23:56:30.751Z,21.99
2019-03-09T23:58:59.152Z,21.98
